Pagrindinis puslapis
METAR-TAF:

METAR-TAF

Oro uostai :

Hua Hin, Tailandas

platuma: 12-35N, ilguma: 099-57E, Aukštis: 5 m

Dabartinis oras

Ataskaita buvo paskelbta 8 valandos ir 50 minutes, ne 14:00 UTC
Vėjas 2 kt nuo kintamojo kryptimis
Temperatūra 29°C
Drėgmė 74%
Slėgis 1012 hPa
Matomumas 10 km arba daugiau
Mažai debesys ne aukštis 3000 ft

METAR: VTPH 121400Z VRB02KT 9999 FEW030 29/24 Q1012 NOSIG

Laikas: 05:50 (22:50 UTC)

Prognozė

Ataskaita buvo paskelbta 5 valandos ir 50 minutes, ne 17:00 UTC
Prognozė galioja nuo 12 metu 18 UTC su 13 metu 18 UTC
Vėjas 5 kt iš Pietryčių
Matomumas 10 km arba daugiau
Mažai debesys ne aukštis 2000 ft
Išsisklaidę debesys ne aukštis 10000 ft
Laikinai
nuo 12 metu 21 UTC su 13 metu 09 UTC
Matomumas: 4000 m
Mažai debesys ne aukštis 1600 ft, Liūtiniai kamuoliniai debesys.
Išsisklaidę debesys ne aukštis 1800 ft
Su prošvaistėmis ne aukštis 10000 ft
perkūnija, lietus

TAF: VTPH 121700Z 1218/1318 13005KT 9999 FEW020 SCT100 TEMPO 1221/1309 4000 TSRA FEW016CB SCT018 BKN100

Orai ataskaitas ir orų prognozės (METAR, TAF).

turimą stotys yra geltonos ir raudonos taškus žemėlapyje.

Perkelti pele per norėdami pamatyti stoties vardą.

Tada spustelėkite, norėdami matyti oro stebėjimo ir prognozės.

Norėdami pakeisti žemėlapį: spustelėkite ant žalios mygtukų su juodo kryžiaus žemyn,; žalią mygtuką su brūkšneliu, jei norite nutolinti; arba žalių rodyklių gretimoms žemėlapius.


METAR-TAF: